Terminal Aerodrome Forecast
Issued by NWS

Home | Current Version | Previous Version | Text Only | Print | Product List | Glossary Off
Versions: 1 2 3 4 5 6 7 8 9 10 11 12 13 14 15 16 17 18 19 20 21

000
FTUS43 KGRB 272300
TAFAUW
TAF
KAUW 272326Z 2800/2824 00000KT 6SM BR OVC018
     FM280500 00000KT 4SM BR BKN008 OVC012
     FM281600 14006KT 6SM BR SCT010 OVC018
     FM282000 14009KT P6SM SCT022 BKN050=

USA.gov is the U.S. government's official web portal to all federal, state and local government web resources and services.